Time;durP1;ratioP1;P1;durP2;ratioP2;P2;SDS_P1;SDS_P2;PMS_P1;PMS_P2;Temp;Humidity;BMP_temperature;BMP_pressure;BME280_temperature;BME280_humidity;BME280_pressure;Samples;Min_cycle;Max_cycle;Signal;HPM_P1;HPM_P2
2023/10/26 00:01:26;;;;;;;11.50;2.10;;;;;;;13.22;100.00;100348.80;104707;1253;60568;-54
2023/10/26 00:03:54;;;;;;;1.60;1.20;;;;;;;13.22;100.00;100344.83;104758;1254;60492;-54
2023/10/26 00:06:21;;;;;;;1.70;1.30;;;;;;;13.21;100.00;100338.17;104769;1252;73053;-53
2023/10/26 00:08:49;;;;;;;1.60;1.50;;;;;;;13.21;100.00;100336.40;104814;1255;66938;-54
2023/10/26 00:11:16;;;;;;;4.60;2.00;;;;;;;13.21;100.00;100344.88;104869;1251;73096;-53
2023/10/26 00:13:44;;;;;;;3.10;2.30;;;;;;;13.21;100.00;100349.55;104811;1260;60578;-54
2023/10/26 00:16:11;;;;;;;1.30;1.20;;;;;;;13.21;100.00;100349.90;104639;1254;60559;-54
2023/10/26 00:18:38;;;;;;;3.00;1.70;;;;;;;13.21;100.00;100348.63;104919;1252;74470;-53
2023/10/26 00:21:06;;;;;;;2.70;1.50;;;;;;;13.21;100.00;100351.34;105758;1256;65011;-53
2023/10/26 00:23:33;;;;;;;3.60;2.00;;;;;;;13.21;100.00;100348.29;109077;1251;73440;-54
2023/10/26 00:26:01;;;;;;;3.50;1.60;;;;;;;13.21;100.00;100352.60;105271;1254;60562;-53
2023/10/26 00:28:28;;;;;;;4.00;2.10;;;;;;;13.21;100.00;100356.02;104975;1254;60571;-55
2023/10/26 00:30:55;;;;;;;2.30;2.10;;;;;;;13.20;100.00;100358.06;104924;1256;73887;-54
2023/10/26 00:33:23;;;;;;;2.20;1.70;;;;;;;13.19;100.00;100360.27;104921;1256;67720;-53
2023/10/26 00:35:54;;;;;;;2.90;1.70;;;;;;;13.18;100.00;100365.19;104843;1257;71443;-54
2023/10/26 00:38:21;;;;;;;2.90;1.30;;;;;;;13.17;100.00;100369.75;104761;1254;61730;-54
2023/10/26 00:40:48;;;;;;;2.40;1.80;;;;;;;13.16;100.00;100367.30;104716;1254;60712;-53
2023/10/26 00:43:21;;;;;;;4.50;1.70;;;;;;;13.16;100.00;100373.44;104745;1256;73938;-52
2023/10/26 00:45:52;;;;;;;1.90;1.70;;;;;;;13.15;100.00;100378.52;108339;1253;66925;-54
2023/10/26 00:48:19;;;;;;;2.40;2.00;;;;;;;13.15;100.00;100383.20;104830;1254;71432;-54
2023/10/26 00:50:50;;;;;;;1.40;1.30;;;;;;;13.13;100.00;100382.73;104684;1254;61875;-53
2023/10/26 00:53:18;;;;;;;1.60;1.50;;;;;;;13.12;100.00;100382.59;104654;1254;60557;-53
2023/10/26 00:55:48;;;;;;;1.80;1.20;;;;;;;13.11;100.00;100384.79;105004;1254;73904;-53
2023/10/26 00:58:16;;;;;;;1.90;1.60;;;;;;;13.10;100.00;100391.69;105518;1258;67397;-53
2023/10/26 01:00:43;;;;;;;2.90;1.90;;;;;;;13.09;100.00;100387.27;104724;1256;72792;-53
2023/10/26 01:03:11;;;;;;;2.10;1.80;;;;;;;13.08;100.00;100388.02;104607;1253;60571;-53
2023/10/26 01:05:38;;;;;;;2.20;1.20;;;;;;;13.08;100.00;100392.36;104708;1259;60376;-54
2023/10/26 01:08:06;;;;;;;1.40;1.30;;;;;;;13.06;100.00;100394.59;104843;1251;72943;-53
2023/10/26 01:10:34;;;;;;;1.50;1.20;;;;;;;13.06;100.00;100396.59;104780;1256;66863;-53
2023/10/26 01:13:02;;;;;;;1.20;1.10;;;;;;;13.05;100.00;100395.75;105659;1256;73218;-55
2023/10/26 01:15:30;;;;;;;2.00;1.10;;;;;;;13.05;100.00;100396.29;104758;1259;60552;-52
2023/10/26 01:17:57;;;;;;;1.20;1.10;;;;;;;13.04;100.00;100395.21;104683;1258;60710;-53
2023/10/26 01:20:24;;;;;;;4.40;1.00;;;;;;;13.03;100.00;100396.53;104738;1253;73083;-53
2023/10/26 01:22:52;;;;;;;1.20;1.10;;;;;;;13.01;100.00;100401.33;104795;1257;66806;-54
2023/10/26 01:25:19;;;;;;;3.30;1.30;;;;;;;12.99;100.00;100403.95;104876;1257;71429;-52
2023/10/26 01:27:46;;;;;;;1.70;1.60;;;;;;;12.97;100.00;100412.15;104882;1251;60750;-52
2023/10/26 01:30:16;;;;;;;1.60;1.40;;;;;;;12.95;100.00;100411.70;104701;1253;60441;-51
2023/10/26 01:32:44;;;;;;;2.40;1.10;;;;;;;12.93;100.00;100410.72;104640;1257;73966;-51
2023/10/26 01:35:11;;;;;;;3.60;1.10;;;;;;;12.90;100.00;100407.96;107713;1257;68981;-53
2023/10/26 01:37:39;;;;;;;1.40;1.10;;;;;;;12.88;100.00;100409.33;108796;1252;71497;-51
2023/10/26 01:40:08;;;;;;;1.20;1.10;;;;;;;12.86;100.00;100416.27;109058;1252;61670;-50
2023/10/26 01:42:36;;;;;;;1.80;1.00;;;;;;;12.83;100.00;100422.91;108972;1252;60257;-52
2023/10/26 01:45:04;;;;;;;1.50;1.00;;;;;;;12.82;100.00;100420.79;109038;1251;74304;-53
2023/10/26 01:47:31;;;;;;;1.00;0.90;;;;;;;12.82;100.00;100416.82;109162;1251;66804;-52
2023/10/26 01:49:59;;;;;;;1.30;1.10;;;;;;;12.81;100.00;100415.07;108903;1256;71801;-53
2023/10/26 01:52:27;;;;;;;1.10;1.00;;;;;;;12.81;100.00;100408.77;108967;1255;60501;-52
2023/10/26 01:54:54;;;;;;;1.20;1.10;;;;;;;12.80;100.00;100411.51;109033;1253;59804;-53
2023/10/26 01:57:22;;;;;;;2.10;1.10;;;;;;;12.78;100.00;100409.59;108954;1252;73821;-53
2023/10/26 01:59:49;;;;;;;5.50;1.30;;;;;;;12.76;100.00;100411.69;108872;1253;65856;-53
2023/10/26 02:02:17;;;;;;;2.50;1.20;;;;;;;12.75;100.00;100417.00;108932;1251;72872;-53
2023/10/26 02:04:44;;;;;;;1.40;1.20;;;;;;;12.74;100.00;100414.88;109050;1253;60511;-53
2023/10/26 02:07:12;;;;;;;1.80;1.30;;;;;;;12.73;100.00;100415.42;108972;1251;60090;-53
2023/10/26 02:09:39;;;;;;;1.70;0.90;;;;;;;12.73;100.00;100412.19;109092;1253;73913;-53
2023/10/26 02:12:07;;;;;;;1.40;1.00;;;;;;;12.73;100.00;100406.81;109134;1251;65940;-52
2023/10/26 02:14:34;;;;;;;1.10;1.00;;;;;;;12.73;100.00;100408.98;109038;1252;71531;-53
2023/10/26 02:17:01;;;;;;;1.10;1.00;;;;;;;12.72;100.00;100409.01;108927;1254;60603;-52
2023/10/26 02:19:29;;;;;;;1.50;0.90;;;;;;;12.72;100.00;100411.02;108855;1251;60645;-52
2023/10/26 02:21:56;;;;;;;1.60;1.00;;;;;;;12.72;100.00;100414.06;106459;1251;73940;-53
2023/10/26 02:24:23;;;;;;;1.50;1.00;;;;;;;12.72;100.00;100416.40;104682;1254;66976;-51
2023/10/26 02:26:51;;;;;;;1.30;0.80;;;;;;;12.72;100.00;100421.98;104698;1254;71453;-51
2023/10/26 02:29:18;;;;;;;1.30;1.00;;;;;;;12.72;100.00;100425.77;104679;1254;60525;-53
2023/10/26 02:31:46;;;;;;;2.80;1.10;;;;;;;12.72;100.00;100431.89;104698;1253;60488;-53
2023/10/26 02:34:14;;;;;;;1.10;1.00;;;;;;;12.72;100.00;100431.16;104823;1254;72661;-54
2023/10/26 02:36:41;;;;;;;1.40;1.10;;;;;;;12.71;100.00;100431.91;104768;1254;67522;-53
2023/10/26 02:39:09;;;;;;;1.30;1.00;;;;;;;12.71;100.00;100431.91;104743;1256;73570;-53
2023/10/26 02:41:37;;;;;;;2.00;1.10;;;;;;;12.71;100.00;100440.04;107209;1254;61675;-54
2023/10/26 02:44:05;;;;;;;1.20;1.10;;;;;;;12.71;100.00;100440.92;104815;1253;60514;-53
2023/10/26 02:46:32;;;;;;;1.10;1.00;;;;;;;12.71;100.00;100440.75;104738;1254;73918;-54
2023/10/26 02:48:59;;;;;;;1.10;1.00;;;;;;;12.71;100.00;100443.64;104793;1254;66760;-54
2023/10/26 02:51:27;;;;;;;1.40;1.00;;;;;;;12.71;100.00;100447.60;104646;1254;71459;-52
2023/10/26 02:53:54;;;;;;;2.70;1.10;;;;;;;12.70;100.00;100445.66;104718;1254;60878;-53
2023/10/26 02:56:22;;;;;;;1.40;1.30;;;;;;;12.68;100.00;100446.62;104757;1254;60635;-53
2023/10/26 02:58:49;;;;;;;1.60;1.20;;;;;;;12.68;100.00;100447.20;104823;1257;72633;-53
2023/10/26 03:01:16;;;;;;;1.30;1.20;;;;;;;12.67;100.00;100454.42;104646;1251;67229;-53
2023/10/26 03:03:44;;;;;;;3.00;1.10;;;;;;;12.67;100.00;100454.63;104879;1254;71790;-52
2023/10/26 03:06:11;;;;;;;1.50;1.20;;;;;;;12.67;100.00;100457.67;104890;1254;62287;-52
2023/10/26 03:08:38;;;;;;;4.00;1.20;;;;;;;12.67;100.00;100460.78;104699;1256;60494;-53
2023/10/26 03:11:06;;;;;;;1.20;1.00;;;;;;;12.66;100.00;100461.52;104786;1251;72660;-52
2023/10/26 03:13:33;;;;;;;4.90;1.10;;;;;;;12.64;100.00;100458.34;104815;1259;66996;-53
2023/10/26 03:16:01;;;;;;;1.40;0.80;;;;;;;12.64;100.00;100455.66;104768;1254;71474;-53
2023/10/26 03:18:28;;;;;;;1.00;0.90;;;;;;;12.63;100.00;100453.92;104707;1253;60633;-53
2023/10/26 03:20:58;;;;;;;1.00;0.90;;;;;;;12.62;100.00;100454.31;104844;1256;60711;-52
2023/10/26 03:23:26;;;;;;;1.10;0.90;;;;;;;12.62;100.00;100458.64;108094;1254;74885;-54
2023/10/26 03:25:53;;;;;;;1.30;0.90;;;;;;;12.62;100.00;100459.89;104536;1254;68518;-54
2023/10/26 03:28:20;;;;;;;0.90;0.80;;;;;;;12.62;100.00;100463.31;104758;1257;72505;-53
2023/10/26 03:30:47;;;;;;;0.90;0.80;;;;;;;12.62;100.00;100471.25;104803;1251;63182;-52
2023/10/26 03:33:15;;;;;;;1.80;0.70;;;;;;;12.62;100.00;100474.86;104805;1254;60483;-53
2023/10/26 03:35:42;;;;;;;1.10;1.00;;;;;;;12.61;100.00;100472.70;104693;1259;73852;-53
2023/10/26 03:38:10;;;;;;;1.20;1.00;;;;;;;12.60;100.00;100473.47;104768;1257;65666;-53
2023/10/26 03:40:37;;;;;;;1.10;0.90;;;;;;;12.60;100.00;100473.32;104802;1256;71395;-54
2023/10/26 03:43:04;;;;;;;1.90;1.10;;;;;;;12.59;100.00;100478.56;104906;1251;61717;-55
2023/10/26 03:45:32;;;;;;;1.20;1.10;;;;;;;12.59;100.00;100480.02;104947;1252;60480;-53
2023/10/26 03:48:00;;;;;;;1.20;1.10;;;;;;;12.59;100.00;100485.78;104722;1251;74781;-54
2023/10/26 03:50:27;;;;;;;1.30;0.90;;;;;;;12.59;100.00;100489.73;109016;1253;65626;-51
2023/10/26 03:52:55;;;;;;;2.30;0.90;;;;;;;12.59;100.00;100487.75;106238;1251;72723;-52
2023/10/26 03:55:22;;;;;;;2.00;0.80;;;;;;;12.60;100.00;100489.88;104582;1258;62692;-54
2023/10/26 03:57:51;;;;;;;0.80;0.70;;;;;;;12.60;100.00;100494.17;104729;1257;60372;-50
2023/10/26 04:00:18;;;;;;;0.70;0.70;;;;;;;12.61;100.00;100498.83;104863;1254;73801;-50
2023/10/26 04:02:45;;;;;;;3.90;1.20;;;;;;;12.60;100.00;100499.38;104711;1259;66035;-53
2023/10/26 04:05:13;;;;;;;4.70;0.90;;;;;;;12.60;100.00;100501.58;104717;1253;73132;-50
2023/10/26 04:07:41;;;;;;;4.50;1.30;;;;;;;12.59;100.00;100502.32;105993;1254;60629;-52
2023/10/26 04:10:09;;;;;;;1.50;1.30;;;;;;;12.60;100.00;100510.01;104737;1254;60562;-55
2023/10/26 04:12:36;;;;;;;2.10;1.10;;;;;;;12.61;100.00;100510.90;104733;1259;75723;-53
2023/10/26 04:15:04;;;;;;;2.40;1.60;;;;;;;12.61;100.00;100513.04;104695;1254;67030;-51
2023/10/26 04:17:32;;;;;;;2.30;1.60;;;;;;;12.62;100.00;100521.11;109005;1255;70894;-55
2023/10/26 04:19:59;;;;;;;1.90;1.40;;;;;;;12.61;100.00;100523.48;108846;1251;63557;-55
2023/10/26 04:22:27;;;;;;;3.80;1.80;;;;;;;12.62;100.00;100525.62;107254;1256;60536;-52
2023/10/26 04:24:54;;;;;;;1.70;1.60;;;;;;;12.62;100.00;100535.16;109080;1252;74237;-52
2023/10/26 04:27:21;;;;;;;6.10;2.10;;;;;;;12.63;100.00;100543.05;104879;1259;67388;-52
2023/10/26 04:29:49;;;;;;;2.30;1.90;;;;;;;12.61;100.00;100541.30;104728;1257;71460;-52
2023/10/26 04:32:16;;;;;;;2.60;2.40;;;;;;;12.60;100.00;100540.43;104679;1258;60775;-54
2023/10/26 04:34:44;;;;;;;1.70;1.60;;;;;;;12.60;100.00;100546.21;104934;1257;60622;-52
2023/10/26 04:37:12;;;;;;;3.00;1.70;;;;;;;12.59;100.00;100549.89;104946;1256;75477;-51
2023/10/26 04:39:43;;;;;;;1.60;1.50;;;;;;;12.59;100.00;100552.05;104814;1254;67300;-50
2023/10/26 04:42:12;;;;;;;3.00;1.60;;;;;;;12.58;100.00;100565.24;109132;1254;72807;-55
2023/10/26 04:44:40;;;;;;;2.90;1.30;;;;;;;12.57;100.00;100568.50;109028;1251;64426;-53
2023/10/26 04:47:08;;;;;;;2.20;2.00;;;;;;;12.57;100.00;100568.16;109113;1251;60232;-52
2023/10/26 04:49:35;;;;;;;3.60;1.90;;;;;;;12.57;100.00;100563.11;109211;1252;73813;-52
2023/10/26 04:52:02;;;;;;;4.40;2.20;;;;;;;12.57;100.00;100565.82;109000;1256;65767;-54
2023/10/26 04:54:30;;;;;;;2.10;1.70;;;;;;;12.57;100.00;100566.52;109080;1254;73790;-53
2023/10/26 04:56:57;;;;;;;2.90;1.60;;;;;;;12.57;100.00;100571.21;109008;1251;61700;-55
2023/10/26 04:59:25;;;;;;;2.40;1.60;;;;;;;12.58;100.00;100577.65;109044;1251;60725;-51
2023/10/26 05:01:52;;;;;;;1.60;1.50;;;;;;;12.58;100.00;100580.20;109078;1251;73159;-54
2023/10/26 05:04:19;;;;;;;2.40;2.20;;;;;;;12.58;100.00;100582.52;109142;1253;67310;-53
2023/10/26 05:06:47;;;;;;;2.30;1.90;;;;;;;12.58;100.00;100585.75;109007;1256;72674;-54
2023/10/26 05:09:14;;;;;;;1.80;1.70;;;;;;;12.59;100.00;100595.41;109132;1254;60537;-51
2023/10/26 05:11:42;;;;;;;1.90;1.50;;;;;;;12.60;100.00;100620.23;109108;1253;58896;-54
2023/10/26 05:14:09;;;;;;;2.90;1.60;;;;;;;12.59;100.00;100628.58;109034;1251;73868;-52
2023/10/26 05:16:37;;;;;;;2.00;1.80;;;;;;;12.59;100.00;100621.72;108293;1256;68227;-52
2023/10/26 05:19:04;;;;;;;2.70;2.30;;;;;;;12.59;100.00;100617.41;104955;1254;71529;-54
2023/10/26 05:21:32;;;;;;;2.10;1.90;;;;;;;12.58;100.00;100611.70;104952;1253;60488;-53
2023/10/26 05:23:59;;;;;;;2.40;1.90;;;;;;;12.58;100.00;100616.01;104760;1254;61245;-52
2023/10/26 05:26:27;;;;;;;2.70;2.00;;;;;;;12.58;100.00;100613.32;105021;1257;77136;-52
2023/10/26 05:28:54;;;;;;;3.10;1.70;;;;;;;12.57;100.00;100612.44;105317;1258;64720;-48
2023/10/26 05:31:22;;;;;;;5.20;1.70;;;;;;;12.56;100.00;100609.25;104802;1254;72346;-52
2023/10/26 05:33:49;;;;;;;2.30;2.20;;;;;;;12.54;100.00;100604.84;109026;1254;60493;-53
2023/10/26 05:36:17;;;;;;;2.50;2.00;;;;;;;12.53;100.00;100605.78;106084;1256;60428;-51
2023/10/26 05:38:45;;;;;;;1.80;1.70;;;;;;;12.52;100.00;100604.16;106525;1254;73074;-51
2023/10/26 05:41:13;;;;;;;3.30;2.40;;;;;;;12.51;100.00;100622.04;104991;1257;66894;-51
2023/10/26 05:43:41;;;;;;;2.00;1.80;;;;;;;12.51;100.00;100637.16;105034;1254;71454;-49
2023/10/26 05:46:08;;;;;;;2.10;1.50;;;;;;;12.51;100.00;100639.67;104972;1254;60520;-50
2023/10/26 05:48:35;;;;;;;4.30;2.00;;;;;;;12.51;100.00;100636.61;104813;1258;60514;-52
2023/10/26 05:51:03;;;;;;;1.90;1.70;;;;;;;12.52;100.00;100631.91;104790;1251;74347;-54
2023/10/26 05:53:31;;;;;;;6.10;2.10;;;;;;;12.53;100.00;100636.75;104901;1254;65822;-52
2023/10/26 05:55:58;;;;;;;2.60;1.70;;;;;;;12.53;100.00;100633.67;104951;1254;72441;-53
2023/10/26 05:58:26;;;;;;;2.50;2.00;;;;;;;12.53;100.00;100630.98;104803;1259;62161;-54
2023/10/26 06:00:53;;;;;;;2.50;1.60;;;;;;;12.52;100.00;100630.81;104779;1252;169066;-55
2023/10/26 06:04:21;;;;;;;2.10;1.60;;;;;;;12.52;100.00;100579.14;102337;1288;601644;-56
2023/10/26 06:06:48;;;;;;;2.10;1.50;;;;;;;12.50;100.00;100786.65;104297;1263;61690;-54
2023/10/26 06:09:15;;;;;;;4.60;2.00;;;;;;;12.50;100.00;100757.83;104184;1267;59260;-52
2023/10/26 06:11:43;;;;;;;2.00;1.50;;;;;;;12.50;100.00;100739.84;105172;1264;71038;-51
2023/10/26 06:14:10;;;;;;;3.10;2.30;;;;;;;12.50;100.00;100728.31;104195;1264;67567;-51
2023/10/26 06:16:38;;;;;;;2.20;1.80;;;;;;;12.50;100.00;100721.97;104250;1263;73189;-51
2023/10/26 06:19:05;;;;;;;2.10;2.00;;;;;;;12.50;100.00;100715.70;104088;1260;147463;-55
2023/10/26 06:21:33;;;;;;;2.20;1.80;;;;;;;12.49;100.00;100712.48;104258;1266;60602;-50
2023/10/26 06:24:00;;;;;;;2.20;2.00;;;;;;;12.50;100.00;100707.62;104159;1267;72319;-50
2023/10/26 06:26:28;;;;;;;4.50;2.10;;;;;;;12.51;100.00;100706.29;104374;1261;65738;-53
2023/10/26 06:28:56;;;;;;;4.40;2.00;;;;;;;12.51;100.00;100703.58;104261;1261;72717;-52
2023/10/26 06:31:23;;;;;;;2.70;1.60;;;;;;;12.52;100.00;100705.53;104055;1263;60558;-50
2023/10/26 06:33:51;;;;;;;4.70;1.90;;;;;;;12.52;100.00;100701.40;104258;1261;59773;-49
2023/10/26 06:36:19;;;;;;;1.60;1.50;;;;;;;12.51;100.00;100699.42;105973;1261;71888;-53
2023/10/26 06:38:46;;;;;;;2.90;1.50;;;;;;;12.52;100.00;100698.70;104329;1267;68110;-51
2023/10/26 06:41:13;;;;;;;2.90;1.70;;;;;;;12.51;100.00;100696.73;104327;1260;73163;-51
2023/10/26 06:43:41;;;;;;;5.20;2.10;;;;;;;12.50;100.00;100696.27;104163;1260;60486;-52
2023/10/26 06:46:08;;;;;;;1.90;1.70;;;;;;;12.51;100.00;100700.54;104006;1263;59731;-52
2023/10/26 06:48:35;;;;;;;2.00;1.60;;;;;;;12.51;100.00;100698.71;104214;1260;72070;-50
2023/10/26 06:51:04;;;;;;;2.80;2.10;;;;;;;12.52;100.00;100702.48;104152;1263;66062;-51
2023/10/26 06:53:31;;;;;;;4.60;1.90;;;;;;;12.51;100.00;100708.46;104096;1266;72466;-55
2023/10/26 06:55:59;;;;;;;2.30;1.70;;;;;;;12.48;100.00;100699.07;104156;1263;63340;-53
2023/10/26 06:58:27;;;;;;;1.40;1.30;;;;;;;12.46;100.00;100701.12;104230;1260;60076;-54
2023/10/26 07:00:55;;;;;;;4.00;1.40;;;;;;;12.46;100.00;100698.23;105224;1260;71858;-55
2023/10/26 07:03:22;;;;;;;1.90;1.70;;;;;;;12.46;100.00;100692.82;104244;1267;66935;-53
2023/10/26 07:05:50;;;;;;;2.70;1.40;;;;;;;12.46;100.00;100694.61;104338;1266;72750;-52
2023/10/26 07:08:17;;;;;;;4.20;2.10;;;;;;;12.48;100.00;100697.23;108109;1257;60628;-51
2023/10/26 07:10:44;;;;;;;3.00;1.80;;;;;;;12.52;100.00;100700.30;104633;1262;60464;-52
2023/10/26 07:13:12;;;;;;;2.00;1.40;;;;;;;12.55;100.00;100704.71;104471;1257;73505;-53
2023/10/26 07:15:39;;;;;;;4.50;1.60;;;;;;;12.57;100.00;100705.16;104468;1263;68123;-54
2023/10/26 07:18:06;;;;;;;2.00;1.80;;;;;;;12.59;100.00;100709.23;104637;1257;72703;-52
2023/10/26 07:20:36;;;;;;;2.30;1.40;;;;;;;12.60;100.00;100721.61;104542;1263;60489;-50
2023/10/26 07:23:04;;;;;;;1.60;1.50;;;;;;;12.62;100.00;100731.61;104611;1257;60506;-52
2023/10/26 07:25:34;;;;;;;2.80;1.10;;;;;;;12.63;100.00;100734.08;104493;1262;71846;-52
2023/10/26 07:28:05;;;;;;;1.50;1.10;;;;;;;12.64;100.00;100742.68;104604;1264;67951;-53
2023/10/26 07:30:38;;;;;;;1.90;1.40;;;;;;;12.65;100.00;100745.52;104540;1257;71467;-50
2023/10/26 07:33:06;;;;;;;2.70;1.60;;;;;;;12.67;100.00;100755.56;104351;1259;59819;-55
2023/10/26 07:35:42;;;;;;;1.40;1.20;;;;;;;12.67;100.00;100748.70;104553;1257;59812;-52
2023/10/26 07:38:10;;;;;;;1.40;1.10;;;;;;;12.68;100.00;100767.38;104522;1257;75183;-52
2023/10/26 07:40:58;;;;;;;2.50;1.00;;;;;;;12.70;100.00;100789.96;104572;1257;65075;-51
2023/10/26 07:43:26;;;;;;;1.10;1.00;;;;;;;12.72;100.00;100768.46;108638;1259;72760;-53
2023/10/26 07:45:54;;;;;;;1.10;1.00;;;;;;;12.74;100.00;100768.40;108756;1257;62167;-52
2023/10/26 07:48:21;;;;;;;2.90;1.00;;;;;;;12.77;100.00;100765.37;108701;1256;58825;-52
2023/10/26 07:50:50;;;;;;;2.30;1.10;;;;;;;12.80;100.00;100767.05;108770;1256;70831;-54
2023/10/26 07:53:18;;;;;;;1.40;0.80;;;;;;;12.83;100.00;100775.40;108676;1258;66008;-51
2023/10/26 07:55:45;;;;;;;1.00;0.70;;;;;;;12.86;100.00;100779.19;108689;1257;72876;-51
2023/10/26 07:58:12;;;;;;;1.20;0.70;;;;;;;12.90;100.00;100798.15;108679;1257;61837;-49
2023/10/26 08:00:40;;;;;;;3.00;0.70;;;;;;;12.95;100.00;100804.08;108677;1257;58738;-49
2023/10/26 08:03:07;;;;;;;0.70;0.70;;;;;;;12.99;100.00;100811.30;108709;1255;71822;-51
2023/10/26 08:05:37;;;;;;;1.40;0.90;;;;;;;13.04;100.00;100821.52;108737;1256;66801;-50
2023/10/26 08:08:04;;;;;;;2.10;0.90;;;;;;;13.09;100.00;100826.89;108590;1257;73137;-52
2023/10/26 08:10:36;;;;;;;2.20;0.80;;;;;;;13.15;100.00;100834.09;104636;1257;59937;-54
2023/10/26 08:13:05;;;;;;;3.90;0.90;;;;;;;13.20;100.00;100855.33;106144;1256;59541;-53
2023/10/26 08:15:32;;;;;;;1.10;1.00;;;;;;;13.24;100.00;100857.70;104868;1260;71725;-51
2023/10/26 08:18:20;;;;;;;1.70;1.00;;;;;;;13.29;100.00;100895.70;104527;1261;67091;-55
2023/10/26 08:20:51;;;;;;;1.10;0.90;;;;;;;13.35;100.00;100879.94;104581;1259;71430;-51
2023/10/26 08:23:19;;;;;;;1.20;0.90;;;;;;;13.42;100.00;100891.00;108746;1256;62119;-50
2023/10/26 08:25:47;;;;;;;2.50;0.80;;;;;;;13.52;100.00;100904.09;108796;1256;60509;-53
2023/10/26 08:28:17;;;;;;;1.20;0.90;;;;;;;13.62;100.00;100915.56;108011;1258;70732;-52
2023/10/26 08:30:45;;;;;;;2.10;0.70;;;;;;;13.71;100.00;100936.11;104664;1260;67430;-49
2023/10/26 08:33:12;;;;;;;1.00;0.80;;;;;;;13.78;100.00;100944.83;104648;1258;71451;-51
2023/10/26 08:35:48;;;;;;;0.90;0.80;;;;;;;13.87;100.00;100961.23;105847;1260;60487;-55
2023/10/26 08:38:15;;;;;;;0.80;0.70;;;;;;;13.94;100.00;100989.96;104635;1257;60201;-50
2023/10/26 08:40:53;;;;;;;1.10;0.90;;;;;;;14.03;100.00;100996.62;104755;1258;73099;-52
2023/10/26 08:43:21;;;;;;;0.90;0.80;;;;;;;14.11;100.00;101032.92;104499;1258;65720;-51
2023/10/26 08:45:49;;;;;;;1.40;1.10;;;;;;;14.15;100.00;101037.61;106010;1260;71490;-52
2023/10/26 08:48:20;;;;;;;1.20;1.00;;;;;;;14.17;100.00;101040.97;105492;1259;60262;-51
2023/10/26 08:50:48;;;;;;;1.40;1.10;;;;;;;14.17;100.00;101052.52;104477;1260;60077;-50
2023/10/26 08:53:16;;;;;;;1.60;1.00;;;;;;;14.19;100.00;101062.73;105362;1256;71593;-55
2023/10/26 08:55:43;;;;;;;1.20;1.10;;;;;;;14.21;100.00;101064.25;104584;1257;67103;-53
2023/10/26 08:58:10;;;;;;;1.30;0.90;;;;;;;14.24;100.00;101072.42;104401;1260;72820;-51
2023/10/26 09:00:40;;;;;;;0.80;0.80;;;;;;;14.26;100.00;101083.90;104574;1257;60718;-54
2023/10/26 09:03:08;;;;;;;2.60;1.00;;;;;;;14.29;100.00;101099.30;104554;1256;60004;-51
2023/10/26 09:06:02;;;;;;;1.10;0.80;;;;;;;14.33;100.00;101105.81;108780;1255;72524;-52
2023/10/26 09:08:30;;;;;;;1.40;0.90;;;;;;;14.37;100.00;101154.40;104237;1260;67463;-53
2023/10/26 09:10:58;;;;;;;1.70;1.10;;;;;;;14.39;100.00;101129.78;104550;1260;70487;-51
2023/10/26 09:13:26;;;;;;;1.40;1.30;;;;;;;14.40;100.00;101129.95;104595;1257;59723;-51
2023/10/26 09:15:58;;;;;;;2.10;1.50;;;;;;;14.40;100.00;101138.79;105253;1260;60070;-53
2023/10/26 09:18:26;;;;;;;1.80;1.10;;;;;;;14.38;100.00;101139.73;104440;1260;73093;-53
2023/10/26 09:21:07;;;;;;;2.20;1.40;;;;;;;14.38;100.00;101139.73;108783;1256;65883;-51
2023/10/26 09:23:36;;;;;;;1.70;1.20;;;;;;;14.37;100.00;101163.42;105215;1261;71755;-54
2023/10/26 09:26:07;;;;;;;1.70;1.50;;;;;;;14.40;100.00;101152.49;104527;1260;61710;-51
2023/10/26 09:28:49;;;;;;;1.30;1.20;;;;;;;14.44;100.00;101156.89;104678;1257;59643;-50
2023/10/26 09:31:17;;;;;;;3.20;1.00;;;;;;;14.49;100.00;101184.46;104462;1255;71855;-52
2023/10/26 09:33:45;;;;;;;1.40;0.90;;;;;;;14.55;100.00;101175.54;105257;1262;65663;-49
2023/10/26 09:36:18;;;;;;;1.30;1.00;;;;;;;14.61;100.00;101185.75;104204;1257;73286;-53
2023/10/26 09:38:47;;;;;;;1.20;1.00;;;;;;;14.66;100.00;101193.29;104424;1262;61117;-49
2023/10/26 09:41:16;;;;;;;2.50;0.90;;;;;;;14.69;100.00;101204.23;105798;1256;60066;-54
2023/10/26 09:43:43;;;;;;;1.10;1.00;;;;;;;14.68;100.00;101204.79;105191;1256;71868;-50
2023/10/26 09:46:11;;;;;;;1.10;1.00;;;;;;;14.67;100.00;101205.91;104572;1257;66982;-51
2023/10/26 09:48:40;;;;;;;1.70;0.90;;;;;;;14.64;100.00;101203.70;106787;1260;71439;-50
2023/10/26 09:51:10;;;;;;;1.50;0.90;;;;;;;14.62;100.00;101204.70;104487;1257;61781;-51
2023/10/26 09:53:39;;;;;;;1.10;1.00;;;;;;;14.63;100.00;101196.52;104538;1260;59654;-52
2023/10/26 09:56:10;;;;;;;0.90;0.80;;;;;;;14.67;100.00;101201.22;108856;1253;71854;-54
2023/10/26 09:58:41;;;;;;;1.50;1.00;;;;;;;14.73;100.00;101209.65;105352;1259;65647;-54
2023/10/26 10:01:36;;;;;;;1.00;0.90;;;;;;;14.78;100.00;101213.77;104816;1254;71472;-49
2023/10/26 10:04:05;;;;;;;1.10;1.00;;;;;;;14.85;100.00;101257.73;107521;1254;59617;-50
2023/10/26 10:06:58;;;;;;;1.40;0.90;;;;;;;14.93;100.00;101224.51;104918;1254;60095;-55
2023/10/26 10:09:26;;;;;;;1.40;1.10;;;;;;;15.03;100.00;101270.54;104618;1254;73507;-52
2023/10/26 10:12:03;;;;;;;1.50;0.90;;;;;;;15.11;100.00;101245.05;106466;1254;65707;-55
2023/10/26 10:14:46;;;;;;;1.20;1.10;;;;;;;15.18;100.00;101270.42;104841;1259;71371;-55
2023/10/26 10:17:17;;;;;;;1.50;0.90;;;;;;;15.24;100.00;101295.14;104761;1254;60564;-52
2023/10/26 10:20:13;;;;;;;1.10;1.00;;;;;;;15.30;100.00;101284.54;108926;1254;58816;-53
2023/10/26 10:22:44;;;;;;;1.60;0.90;;;;;;;15.42;100.00;101339.20;109002;1253;74339;-51
2023/10/26 10:25:11;;;;;;;1.00;0.80;;;;;;;15.50;100.00;101324.52;109041;1254;65785;-54
2023/10/26 10:27:59;;;;;;;4.60;1.10;;;;;;;15.57;100.00;101332.04;108939;1256;71445;-51
2023/10/26 10:30:27;;;;;;;1.20;1.10;;;;;;;15.60;100.00;101372.64;108916;1255;60125;-52
2023/10/26 10:32:56;;;;;;;2.00;1.00;;;;;;;15.61;100.00;101351.40;109011;1253;60532;-52
2023/10/26 10:35:43;;;;;;;1.20;0.90;;;;;;;15.62;100.00;101354.84;108986;1253;72863;-55
2023/10/26 10:38:10;;;;;;;1.70;1.10;;;;;;;15.60;100.00;101389.27;108915;1253;67158;-52
2023/10/26 10:40:54;;;;;;;2.10;0.80;;;;;;;15.58;100.00;101359.49;108935;1257;74978;-51
2023/10/26 10:43:30;;;;;;;0.90;0.90;;;;;;;15.57;100.00;101382.34;109021;1254;60369;-53
2023/10/26 10:46:21;;;;;;;1.00;0.80;;;;;;;15.57;100.00;101381.97;108981;1253;58881;-55
2023/10/26 10:49:03;;;;;;;1.30;1.00;;;;;;;15.56;100.00;101400.52;109023;1254;74937;-52
2023/10/26 10:51:34;;;;;;;1.00;0.90;;;;;;;15.54;100.00;101387.54;108991;1256;65979;-53
2023/10/26 10:54:09;;;;;;;1.40;0.80;;;;;;;15.51;100.00;101365.38;109048;1254;70712;-52
2023/10/26 10:56:56;;;;;;;;;;;;;;;15.49;100.00;101397.30;109100;1254;62231;-52
2023/10/26 10:59:27;;;;;;;1.80;0.80;;;;;;;15.49;100.00;101348.42;109050;1252;60383;-53
2023/10/26 11:02:11;;;;;;;1.10;1.00;;;;;;;15.52;100.00;101354.85;109054;1253;73903;-54
2023/10/26 11:04:58;;;;;;;1.20;0.90;;;;;;;15.55;100.00;101382.98;106788;1256;65938;-49
2023/10/26 11:07:42;;;;;;;1.00;0.90;;;;;;;15.57;100.00;101417.25;105573;1254;73213;-51
2023/10/26 11:10:09;;;;;;;1.20;0.90;;;;;;;15.57;100.00;101365.16;104577;1254;61752;-52
2023/10/26 11:12:37;;;;;;;1.00;0.90;;;;;;;15.55;100.00;101361.99;108900;1252;58899;-55
2023/10/26 11:15:07;;;;;;;2.20;0.80;;;;;;;15.53;100.00;101351.56;108941;1254;72650;-51
2023/10/26 11:17:35;;;;;;;2.60;0.90;;;;;;;15.50;100.00;101343.15;107361;1254;65814;-50
2023/10/26 11:20:03;;;;;;;1.30;1.10;;;;;;;15.48;100.00;101336.17;104755;1254;71443;-52